Time;durP1;ratioP1;P1;durP2;ratioP2;P2;SDS_P1;SDS_P2;PMS_P1;PMS_P2;Temp;Humidity;BMP_temperature;BMP_pressure;BME280_temperature;BME280_humidity;BME280_pressure;Samples;Min_cycle;Max_cycle;Signal;HPM_P1;HPM_P2
2021/03/08 00:01:06;;;;;;;0.75;0.60;;;19.60;37.70;;;;;;6218454;23;20016;-78
2021/03/08 00:03:31;;;;;;;0.70;0.70;;;19.60;37.70;;;;;;6218900;23;20067;-78
2021/03/08 00:05:57;;;;;;;0.57;0.57;;;19.60;37.70;;;;;;6193468;23;20069;-79
2021/03/08 00:08:23;;;;;;;0.50;0.50;;;19.60;37.70;;;;;;6193407;23;20103;-79
2021/03/08 00:10:49;;;;;;;0.65;0.65;;;19.60;37.60;;;;;;6218757;23;20090;-78
2021/03/08 00:13:15;;;;;;;0.50;0.50;;;19.60;37.70;;;;;;6219126;23;20004;-78
2021/03/08 00:15:41;;;;;;;1.27;0.70;;;19.50;37.60;;;;;;6193478;23;20035;-79
2021/03/08 00:18:06;;;;;;;0.50;0.50;;;19.60;37.60;;;;;;6192662;23;20039;-78
2021/03/08 00:20:32;;;;;;;0.50;0.50;;;19.60;37.60;;;;;;6193388;23;20338;-79
2021/03/08 00:22:58;;;;;;;0.68;0.68;;;19.60;37.70;;;;;;6218181;23;20465;-78
2021/03/08 00:25:26;;;;;;;0.82;0.70;;;19.50;37.60;;;;;;6245547;23;20016;-79
2021/03/08 00:27:53;;;;;;;0.75;0.60;;;19.60;37.60;;;;;;6193413;23;20012;-79
2021/03/08 00:30:19;;;;;;;0.70;0.60;;;19.60;37.60;;;;;;6194045;23;20024;-79
2021/03/08 00:32:46;;;;;;;0.65;0.65;;;19.50;37.50;;;;;;6193077;23;20008;-79
2021/03/08 00:35:13;;;;;;;0.50;0.50;;;19.50;37.60;;;;;;6218097;23;20102;-78
2021/03/08 00:37:40;;;;;;;0.50;0.50;;;19.50;37.60;;;;;;6245073;22;20422;-79
2021/03/08 00:40:13;;;;;;;0.73;0.63;;;19.50;37.50;;;;;;6193315;23;20016;-79
2021/03/08 00:42:40;;;;;;;0.50;0.50;;;19.50;37.60;;;;;;6192965;23;20027;-79
2021/03/08 00:45:16;;;;;;;0.50;0.50;;;19.50;37.70;;;;;;6193260;23;20050;-79
2021/03/08 00:47:45;;;;;;;0.70;0.68;;;19.60;37.60;;;;;;6193198;23;20036;-78
2021/03/08 00:50:17;;;;;;;0.63;0.60;;;19.60;37.60;;;;;;6218212;23;20065;-78
2021/03/08 00:52:43;;;;;;;0.57;0.57;;;19.50;37.50;;;;;;6193942;23;20008;-79
2021/03/08 00:55:14;;;;;;;0.77;0.60;;;19.50;37.40;;;;;;6218160;23;20040;-78
2021/03/08 00:57:40;;;;;;;0.63;0.60;;;19.50;37.50;;;;;;6215962;23;20085;-78
2021/03/08 01:00:11;;;;;;;1.02;0.60;;;19.50;37.50;;;;;;6192926;23;20462;-79
2021/03/08 01:02:42;;;;;;;1.00;0.60;;;19.50;37.50;;;;;;6215982;23;20012;-79
2021/03/08 01:05:14;;;;;;;0.60;0.60;;;19.50;37.50;;;;;;6218393;23;20450;-79
2021/03/08 01:07:42;;;;;;;0.80;0.80;;;19.50;37.50;;;;;;6217827;23;20346;-79
2021/03/08 01:10:13;;;;;;;0.95;0.70;;;19.50;37.50;;;;;;6218292;23;20062;-79
2021/03/08 01:12:40;;;;;;;0.50;0.50;;;19.50;37.60;;;;;;6215128;23;20083;-78
2021/03/08 01:15:10;;;;;;;0.70;0.70;;;19.50;37.40;;;;;;6193541;23;20017;-79
2021/03/08 01:17:36;;;;;;;1.17;0.68;;;19.50;37.90;;;;;;6217819;23;20412;-79
2021/03/08 01:20:11;;;;;;;0.88;0.88;;;19.50;37.50;;;;;;6192890;23;20016;-79
2021/03/08 01:22:37;;;;;;;0.60;0.60;;;19.50;37.40;;;;;;6218238;23;20008;-78
2021/03/08 01:25:14;;;;;;;1.23;0.65;;;19.60;37.50;;;;;;6217896;23;20020;-79
2021/03/08 01:27:41;;;;;;;0.60;0.60;;;19.50;37.40;;;;;;6189582;23;20072;-79
2021/03/08 01:30:09;;;;;;;0.70;0.60;;;19.50;37.40;;;;;;6193716;23;20051;-78
2021/03/08 01:32:35;;;;;;;0.50;0.50;;;19.50;37.50;;;;;;6193896;23;20454;-78
2021/03/08 01:35:00;;;;;;;0.55;0.55;;;19.60;37.50;;;;;;6219844;23;20012;-79
2021/03/08 01:37:26;;;;;;;0.60;0.60;;;19.50;37.60;;;;;;6219059;23;20012;-79
2021/03/08 01:39:52;;;;;;;1.30;0.70;;;19.50;37.60;;;;;;6194249;23;20016;-79
2021/03/08 01:42:17;;;;;;;0.55;0.55;;;19.50;37.40;;;;;;6194299;23;20398;-79
2021/03/08 01:44:43;;;;;;;0.40;0.40;;;19.50;38.00;;;;;;6194095;23;20016;-79
2021/03/08 01:47:08;;;;;;;0.60;0.60;;;19.50;37.40;;;;;;6219130;23;20043;-79
2021/03/08 01:49:34;;;;;;;0.60;0.60;;;19.50;37.50;;;;;;6194104;23;20465;-79
2021/03/08 01:52:01;;;;;;;0.60;0.60;;;19.50;37.30;;;;;;6194826;23;20016;-79
2021/03/08 01:54:28;;;;;;;0.60;0.60;;;19.50;37.50;;;;;;6219027;23;20047;-79
2021/03/08 01:56:56;;;;;;;0.82;0.60;;;19.50;37.40;;;;;;6219028;23;20020;-78
2021/03/08 01:59:23;;;;;;;0.40;0.40;;;19.50;37.40;;;;;;6218942;23;20446;-79
2021/03/08 02:01:49;;;;;;;0.95;0.70;;;19.50;37.30;;;;;;6219095;23;20016;-79
2021/03/08 02:04:14;;;;;;;0.60;0.60;;;19.60;37.30;;;;;;6218774;23;20066;-79
2021/03/08 02:06:40;;;;;;;0.57;0.50;;;19.50;37.30;;;;;;6245883;23;20039;-78
2021/03/08 02:09:06;;;;;;;0.82;0.60;;;19.50;37.30;;;;;;6218934;23;20095;-78
2021/03/08 02:11:34;;;;;;;0.50;0.50;;;19.50;37.30;;;;;;6193776;23;20016;-79
2021/03/08 02:14:25;;;;;;;0.70;0.50;;;19.50;37.40;;;;;;6218862;23;20016;-79
2021/03/08 02:17:12;;;;;;;0.60;0.60;;;19.50;37.30;;;;;;6191253;23;20031;-79
2021/03/08 02:20:06;;;;;;;0.80;0.60;;;19.50;37.50;;;;;;6191258;23;20016;-78
2021/03/08 02:22:55;;;;;;;0.80;0.60;;;19.50;37.40;;;;;;6217946;23;20020;-79
2021/03/08 02:25:45;;;;;;;1.35;0.80;;;19.50;37.30;;;;;;6194185;23;20062;-78
2021/03/08 02:28:35;;;;;;;0.45;0.45;;;19.50;37.30;;;;;;6194125;23;20020;-79
2021/03/08 02:31:04;;;;;;;0.70;0.60;;;19.50;37.60;;;;;;6193915;23;20118;-79
2021/03/08 02:33:33;;;;;;;1.70;0.70;;;19.50;37.30;;;;;;6193745;23;20373;-78
2021/03/08 02:36:02;;;;;;;0.40;0.40;;;19.50;37.30;;;;;;6193805;23;20381;-79
2021/03/08 02:38:32;;;;;;;0.50;0.50;;;19.50;37.50;;;;;;6245690;23;20096;-78
2021/03/08 02:41:16;;;;;;;1.67;0.70;;;19.50;37.30;;;;;;6193615;23;20019;-78
2021/03/08 02:43:44;;;;;;;0.50;0.50;;;19.50;37.40;;;;;;6194083;23;20070;-78
2021/03/08 02:46:16;;;;;;;0.70;0.50;;;19.50;37.40;;;;;;6246083;23;20046;-79
2021/03/08 02:48:44;;;;;;;0.50;0.50;;;19.50;37.20;;;;;;6193949;23;20020;-79
2021/03/08 02:51:11;;;;;;;0.68;0.68;;;19.50;37.30;;;;;;6190802;23;20476;-78
2021/03/08 02:53:40;;;;;;;0.50;0.50;;;19.50;37.40;;;;;;6193635;23;20023;-79
2021/03/08 02:56:11;;;;;;;0.60;0.52;;;19.50;37.20;;;;;;6246030;23;20098;-78
2021/03/08 02:58:40;;;;;;;0.57;0.57;;;19.50;37.30;;;;;;6194164;23;20108;-78
2021/03/08 03:01:07;;;;;;;0.50;0.50;;;19.50;37.20;;;;;;6193977;23;20024;-78
2021/03/08 03:03:36;;;;;;;0.52;0.52;;;19.50;37.30;;;;;;6218584;23;20090;-79
2021/03/08 03:06:03;;;;;;;0.80;0.65;;;19.50;37.10;;;;;;6193614;23;20043;-79
2021/03/08 03:08:31;;;;;;;1.35;0.68;;;19.50;37.10;;;;;;6193733;23;20066;-78
2021/03/08 03:10:57;;;;;;;1.23;0.70;;;19.50;37.00;;;;;;6215604;23;20020;-78
2021/03/08 03:13:24;;;;;;;0.85;0.77;;;19.60;37.10;;;;;;6193980;23;20043;-79
2021/03/08 03:15:52;;;;;;;1.13;0.68;;;19.50;36.90;;;;;;6218864;23;20012;-79
2021/03/08 03:18:19;;;;;;;0.45;0.45;;;19.50;36.90;;;;;;6193707;23;20013;-79
2021/03/08 03:20:46;;;;;;;0.55;0.50;;;19.60;36.90;;;;;;6218821;23;20075;-79
2021/03/08 03:23:13;;;;;;;0.50;0.50;;;19.60;37.00;;;;;;6245442;23;20004;-78
2021/03/08 03:25:40;;;;;;;0.68;0.68;;;19.60;37.00;;;;;;6194208;23;20024;-78
2021/03/08 03:28:07;;;;;;;1.15;0.82;;;19.60;37.10;;;;;;6218551;23;20008;-79
2021/03/08 03:30:33;;;;;;;1.15;0.65;;;19.60;36.80;;;;;;6218505;23;20016;-79
2021/03/08 03:32:59;;;;;;;0.55;0.50;;;19.60;36.80;;;;;;6215632;23;20500;-78
2021/03/08 03:35:27;;;;;;;0.70;0.70;;;19.60;36.80;;;;;;6218639;23;20062;-78
2021/03/08 03:37:55;;;;;;;0.60;0.60;;;19.60;36.90;;;;;;6193331;23;20051;-79
2021/03/08 03:40:21;;;;;;;0.50;0.50;;;19.60;36.90;;;;;;6219318;23;20016;-78
2021/03/08 03:42:49;;;;;;;0.50;0.50;;;19.60;36.80;;;;;;6245287;23;20073;-79
2021/03/08 03:45:19;;;;;;;0.77;0.52;;;19.60;36.90;;;;;;6193606;23;20013;-79
2021/03/08 03:47:46;;;;;;;0.73;0.73;;;19.60;36.80;;;;;;6218341;23;20020;-79
2021/03/08 03:50:14;;;;;;;0.63;0.52;;;19.60;36.80;;;;;;6193721;23;20024;-79
2021/03/08 03:52:40;;;;;;;0.40;0.40;;;19.60;36.70;;;;;;6192595;23;20016;-79
2021/03/08 03:55:09;;;;;;;0.80;0.40;;;19.60;36.80;;;;;;6193936;23;20103;-78
2021/03/08 03:57:48;;;;;;;0.57;0.55;;;19.60;36.70;;;;;;6193492;23;20070;-79
2021/03/08 04:00:19;;;;;;;0.52;0.50;;;19.60;37.40;;;;;;6193741;23;20022;-78
2021/03/08 04:03:10;;;;;;;0.50;0.50;;;19.60;36.70;;;;;;6193503;23;20012;-79
2021/03/08 04:05:40;;;;;;;0.57;0.57;;;19.60;36.70;;;;;;6193404;23;20026;-79
2021/03/08 04:08:11;;;;;;;0.50;0.50;;;19.60;36.80;;;;;;6218547;23;20449;-79
2021/03/08 04:10:39;;;;;;;0.77;0.57;;;19.70;36.70;;;;;;6192404;23;20326;-78
2021/03/08 04:13:13;;;;;;;0.47;0.47;;;19.70;36.70;;;;;;6190477;23;20016;-79
2021/03/08 04:15:39;;;;;;;0.40;0.40;;;19.70;36.70;;;;;;6218428;23;20023;-78
2021/03/08 04:18:06;;;;;;;0.73;0.55;;;19.60;36.70;;;;;;6218242;23;20333;-78
2021/03/08 04:20:32;;;;;;;0.32;0.32;;;19.70;36.80;;;;;;6193277;23;20319;-78
2021/03/08 04:23:04;;;;;;;0.55;0.50;;;19.70;36.70;;;;;;6218332;23;20008;-79
2021/03/08 04:25:30;;;;;;;;;;;19.70;36.60;;;;;;6193814;23;20050;-79
2021/03/08 04:27:57;;;;;;;1.40;0.80;;;19.70;36.70;;;;;;6193075;23;19912;-79
2021/03/08 04:30:24;;;;;;;0.85;0.63;;;19.70;36.50;;;;;;6218320;23;20449;-79
2021/03/08 04:32:53;;;;;;;0.50;0.50;;;19.70;36.60;;;;;;6245253;23;20012;-79
2021/03/08 04:35:23;;;;;;;0.50;0.50;;;19.70;37.10;;;;;;6218585;23;20020;-78
2021/03/08 04:37:50;;;;;;;0.40;0.40;;;19.70;36.50;;;;;;6193004;23;20442;-79
2021/03/08 04:40:17;;;;;;;0.40;0.40;;;19.70;36.50;;;;;;6193093;23;20070;-79
2021/03/08 04:42:44;;;;;;;0.60;0.60;;;19.70;36.70;;;;;;6193224;23;20069;-79
2021/03/08 04:45:11;;;;;;;0.55;0.55;;;19.60;36.60;;;;;;6218364;23;20035;-79
2021/03/08 04:47:38;;;;;;;0.73;0.50;;;19.60;36.70;;;;;;6215077;23;20095;-79
2021/03/08 04:50:06;;;;;;;0.60;0.50;;;19.60;36.60;;;;;;6193031;23;20449;-79
2021/03/08 04:52:32;;;;;;;0.82;0.60;;;19.60;36.70;;;;;;6218140;23;20346;-79
2021/03/08 04:54:59;;;;;;;1.35;0.70;;;19.60;36.70;;;;;;6193151;23;20008;-78
2021/03/08 04:57:25;;;;;;;1.10;0.70;;;19.60;36.70;;;;;;6218105;23;20441;-79
2021/03/08 04:59:51;;;;;;;0.50;0.50;;;19.60;36.60;;;;;;6193174;23;20042;-79
2021/03/08 05:02:21;;;;;;;0.43;0.43;;;19.70;36.60;;;;;;6192628;23;20509;-78
2021/03/08 05:04:50;;;;;;;0.40;0.40;;;19.70;36.50;;;;;;6218144;23;20338;-79
2021/03/08 05:07:19;;;;;;;0.77;0.70;;;19.70;36.50;;;;;;6192936;23;20046;-79
2021/03/08 05:09:47;;;;;;;0.85;0.70;;;19.70;36.50;;;;;;6193468;23;20035;-78
2021/03/08 05:12:14;;;;;;;0.50;0.50;;;19.60;36.50;;;;;;6218704;23;20027;-79
2021/03/08 05:14:43;;;;;;;0.80;0.60;;;19.60;36.50;;;;;;6193093;23;20107;-79
2021/03/08 05:17:09;;;;;;;0.90;0.90;;;19.60;36.60;;;;;;6218193;23;20329;-79
2021/03/08 05:19:38;;;;;;;0.93;0.82;;;19.60;36.60;;;;;;6217741;23;20024;-79
2021/03/08 05:22:05;;;;;;;0.50;0.50;;;19.60;36.60;;;;;;6217897;23;20095;-79
2021/03/08 05:24:31;;;;;;;0.50;0.50;;;19.60;36.50;;;;;;6217659;23;20016;-78
2021/03/08 05:27:08;;;;;;;0.80;0.57;;;19.60;36.60;;;;;;6245112;23;20330;-78
2021/03/08 05:29:37;;;;;;;0.57;0.57;;;19.60;36.60;;;;;;6251376;23;19997;-78
2021/03/08 05:32:08;;;;;;;0.65;0.65;;;19.60;36.70;;;;;;6228675;23;20020;-78
2021/03/08 05:34:34;;;;;;;0.40;0.40;;;19.60;36.70;;;;;;6218410;23;20012;-79
2021/03/08 05:41:07;;;;;;;;;;;;;;;;;;;;;
2021/03/08 05:49:01;;;;;;;0.60;0.50;;;19.60;36.60;;;;;;6150947;23;20029;-79
2021/03/08 05:57:27;;;;;;;;;;;;;;;;;;;;;
2021/03/08 06:00:19;;;;;;;0.60;0.60;;;19.70;36.50;;;;;;6126309;23;20105;-77
2021/03/08 06:11:47;;;;;;;;;;;;;;;;;;;;;
2021/03/08 06:19:37;;;;;;;1.73;0.52;;;19.70;36.30;;;;;;6035251;23;20124;-79
2021/03/08 06:34:27;;;;;;;2.28;0.60;;;19.70;36.50;;;;;;6092671;23;20041;-79
2021/03/08 06:40:34;;;;;;;1.30;0.60;;;19.70;36.70;;;;;;5954603;23;20482;-79
2021/03/08 06:48:41;;;;;;;1.75;0.70;;;19.70;36.60;;;;;;5978766;23;20031;-79
2021/03/08 07:08:27;;;;;;;0.75;0.68;;;19.90;36.40;;;;;;5969296;23;20085;-79
2021/03/08 07:12:36;;;;;;;;;;;;;;;;;;;;;
2021/03/08 07:43:46;;;;;;;1.70;0.82;;;20.00;36.30;;;;;;6121082;23;20029;-80
2021/03/08 07:47:45;;;;;;;;;;;;;;;;;;;;;
2021/03/08 08:02:34;;;;;;;1.27;0.70;;;20.00;36.30;;;;;;6243176;23;20103;-79
2021/03/08 08:06:27;;;;;;;;;;;;;;;;;;;;;
2021/03/08 08:14:45;;;;;;;1.50;0.68;;;19.90;36.30;;;;;;6172426;23;20059;-79
2021/03/08 08:44:50;;;;;;;2.50;0.85;;;19.90;36.40;;;;;;6211118;23;20055;-79
2021/03/08 08:52:38;;;;;;;1.70;0.90;;;19.90;36.40;;;;;;6213163;23;20106;-79
2021/03/08 09:04:00;;;;;;;;;;;;;;;;;;;;;
2021/03/08 09:11:11;;;;;;;;;;;;;;;;;;;;;
2021/03/08 09:14:37;;;;;;;2.50;1.17;;;19.90;36.40;;;;;;6123633;23;20104;-79
2021/03/08 09:18:16;;;;;;;;;;;;;;;;;;;;;
2021/03/08 09:37:08;;;;;;;0.98;0.70;;;19.80;36.40;;;;;;6192825;23;20143;-79
2021/03/08 09:49:05;;;;;;;0.57;0.45;;;19.90;36.50;;;;;;5987722;23;20034;-79
2021/03/08 09:53:20;;;;;;;;;;;;;;;;;;;;;
2021/03/08 10:29:37;;;;;;;2.85;0.90;;;19.90;36.30;;;;;;6162421;23;20102;-79
2021/03/08 10:33:26;;;;;;;2.90;0.82;;;19.90;36.30;;;;;;6158900;23;20024;-79
2021/03/08 10:37:10;;;;;;;1.40;0.88;;;19.90;36.10;;;;;;6175919;23;20021;-79
2021/03/08 11:07:45;;;;;;;1.58;1.00;;;20.20;35.90;;;;;;6210822;23;20378;-80
2021/03/08 11:10:11;;;;;;;2.15;0.70;;;20.20;36.00;;;;;;6187834;23;20020;-80
2021/03/08 11:12:38;;;;;;;1.90;0.80;;;20.30;36.20;;;;;;6163817;23;20051;-80
2021/03/08 11:15:04;;;;;;;3.50;0.80;;;20.30;36.30;;;;;;6201788;23;20000;-80
2021/03/08 11:17:41;;;;;;;2.28;0.68;;;20.30;36.40;;;;;;6213743;23;20027;-79
2021/03/08 11:20:27;;;;;;;1.30;0.70;;;20.30;36.20;;;;;;6187755;23;20236;-79
2021/03/08 11:23:01;;;;;;;2.13;0.80;;;20.40;35.90;;;;;;6212427;23;20021;-79
2021/03/08 11:25:35;;;;;;;2.00;0.98;;;20.40;36.30;;;;;;6187266;23;20020;-79
2021/03/08 11:28:05;;;;;;;1.00;0.65;;;20.50;35.90;;;;;;6184326;23;20024;-80
2021/03/08 11:30:31;;;;;;;0.85;0.80;;;20.50;36.00;;;;;;6187433;23;20035;-79
2021/03/08 11:32:59;;;;;;;1.75;0.80;;;20.50;35.50;;;;;;6187056;23;20021;-79
2021/03/08 11:35:31;;;;;;;1.58;0.70;;;20.50;35.90;;;;;;6187141;23;20051;-79
2021/03/08 11:38:00;;;;;;;1.85;0.60;;;20.60;36.30;;;;;;6189945;23;20025;-79
2021/03/08 11:40:29;;;;;;;1.42;0.47;;;20.60;36.10;;;;;;6193156;23;20101;-79
2021/03/08 11:43:02;;;;;;;1.35;0.70;;;20.60;36.00;;;;;;6217967;23;20097;-79
2021/03/08 11:45:44;;;;;;;1.33;0.70;;;20.70;35.90;;;;;;6194718;23;20016;-80
2021/03/08 11:48:16;;;;;;;1.02;0.60;;;20.70;35.80;;;;;;6217272;23;20016;-79
2021/03/08 11:50:45;;;;;;;1.23;0.60;;;20.80;36.20;;;;;;6218034;23;20024;-79
2021/03/08 11:53:16;;;;;;;0.68;0.68;;;20.90;35.90;;;;;;6191750;23;20016;-80
2021/03/08 11:56:00;;;;;;;2.70;0.95;;;21.00;35.90;;;;;;6221229;23;20095;-80
2021/03/08 11:59:00;;;;;;;0.70;0.70;;;21.10;35.50;;;;;;6217188;23;20024;-79
2021/03/08 12:01:35;;;;;;;1.20;0.80;;;21.10;35.50;;;;;;6218242;23;20070;-80
2021/03/08 12:04:21;;;;;;;1.02;0.68;;;21.20;35.50;;;;;;6217273;23;20039;-80
2021/03/08 12:06:55;;;;;;;2.17;0.70;;;21.30;35.50;;;;;;6218718;23;20448;-80
2021/03/08 12:12:21;;;;;;;1.75;0.77;;;21.40;35.40;;;;;;6214862;23;20039;-80
2021/03/08 12:14:56;;;;;;;1.02;0.70;;;21.50;35.10;;;;;;6216434;23;20089;-80
2021/03/08 12:17:25;;;;;;;1.52;0.77;;;21.50;34.70;;;;;;6218155;23;20015;-80
2021/03/08 12:19:54;;;;;;;2.38;0.80;;;21.60;34.90;;;;;;6193337;23;20027;-80
2021/03/08 12:22:20;;;;;;;2.72;0.98;;;21.80;34.80;;;;;;6218591;23;20102;-80
2021/03/08 12:24:51;;;;;;;1.10;0.80;;;21.90;34.50;;;;;;6194285;23;20024;-80
2021/03/08 12:27:22;;;;;;;1.38;0.75;;;22.10;34.50;;;;;;6217953;23;20038;-78
2021/03/08 12:29:48;;;;;;;1.60;0.90;;;22.50;34.40;;;;;;6218167;23;20016;-77
2021/03/08 12:32:31;;;;;;;1.35;0.70;;;23.50;33.20;;;;;;6245415;23;20365;-78
2021/03/08 12:35:01;;;;;;;2.88;0.88;;;24.90;31.10;;;;;;6193272;23;20548;-78
2021/03/08 12:37:27;;;;;;;1.73;0.80;;;26.10;30.30;;;;;;6217713;23;20023;-79
2021/03/08 12:39:57;;;;;;;1.48;0.80;;;27.20;29.40;;;;;;6217740;23;20011;-78
2021/03/08 12:42:32;;;;;;;1.88;0.80;;;28.00;28.70;;;;;;6194544;23;20085;-78
2021/03/08 12:44:58;;;;;;;1.40;0.70;;;28.50;28.10;;;;;;6218462;23;20050;-78
2021/03/08 12:47:27;;;;;;;2.70;0.80;;;28.80;27.90;;;;;;6244900;22;20012;-79
2021/03/08 13:06:51;;;;;;;1.20;0.80;;;29.30;27.30;;;;;;6006989;23;20362;-80
2021/03/08 13:14:52;;;;;;;;;;;;;;;;;;;;;
2021/03/08 13:18:35;;;;;;;;;;;;;;;;;;;;;
2021/03/08 13:30:24;;;;;;;;;;;;;;;;;;;;;
2021/03/08 13:41:43;;;;;;;2.65;0.73;;;24.20;32.00;;;;;;6073675;23;20036;-80
2021/03/08 13:49:05;;;;;;;;;;;;;;;;;;;;;
2021/03/08 13:52:41;;;;;;;2.47;0.90;;;23.90;32.70;;;;;;5981593;23;20451;-80
2021/03/08 14:00:23;;;;;;;3.05;1.10;;;23.80;33.10;;;;;;6146677;23;20017;-80
2021/03/08 14:12:44;;;;;;;;;;;;;;;;;;;;;
2021/03/08 14:16:08;;;;;;;1.95;0.82;;;23.70;33.20;;;;;;6106437;23;20092;-80
2021/03/08 14:52:37;;;;;;;;;;;;;;;;;;;;;
2021/03/08 15:07:47;;;;;;;;;;;;;;;;;;;;;
2021/03/08 15:23:18;;;;;;;;;;;;;;;;;;;;;
2021/03/08 15:46:59;;;;;;;2.50;0.90;;;22.60;34.60;;;;;;5942764;23;20056;-80
2021/03/08 15:50:22;;;;;;;3.75;1.08;;;22.50;34.70;;;;;;6035689;23;20102;-80
2021/03/08 15:53:56;;;;;;;2.67;0.98;;;22.50;34.70;;;;;;6073307;23;20089;-80
2021/03/08 16:09:59;;;;;;;;;;;;;;;;;;;;;
2021/03/08 16:13:29;;;;;;;;;;;;;;;;;;;;;
2021/03/08 16:17:30;;;;;;;;;;;;;;;;;;;;;
2021/03/08 16:20:54;;;;;;;1.30;0.68;;;21.80;35.60;;;;;;6090007;23;20241;-80
2021/03/08 16:24:19;;;;;;;3.38;0.90;;;21.70;36.00;;;;;;6060144;23;20022;-80
2021/03/08 16:43:20;;;;;;;3.40;1.50;;;21.50;35.80;;;;;;6007983;23;20419;-80
2021/03/08 17:09:45;;;;;;;2.50;0.90;;;21.20;36.00;;;;;;5960268;23;20478;-80
2021/03/08 17:20:31;;;;;;;1.77;0.75;;;21.20;36.20;;;;;;6035293;23;20505;-80
2021/03/08 17:22:57;;;;;;;1.33;0.60;;;21.20;36.00;;;;;;6011674;23;20030;-80
2021/03/08 17:25:23;;;;;;;2.40;0.90;;;21.10;36.40;;;;;;6028350;23;20401;-80
2021/03/08 17:27:48;;;;;;;1.30;0.98;;;21.00;36.30;;;;;;6098354;23;20340;-80
2021/03/08 17:30:18;;;;;;;2.40;0.93;;;21.10;37.10;;;;;;6122984;23;20022;-80
2021/03/08 17:32:45;;;;;;;1.60;0.70;;;21.00;36.60;;;;;;6122351;23;20026;-80
2021/03/08 17:35:11;;;;;;;1.65;0.80;;;20.90;36.50;;;;;;6096407;23;20034;-80
2021/03/08 17:37:37;;;;;;;2.28;0.80;;;20.90;36.80;;;;;;6128619;23;20025;-81
2021/03/08 17:40:06;;;;;;;1.23;0.60;;;20.90;36.70;;;;;;6157716;23;20071;-80
2021/03/08 17:42:34;;;;;;;1.42;0.88;;;20.90;36.50;;;;;;6171186;23;20020;-79
2021/03/08 17:45:00;;;;;;;1.70;0.70;;;20.90;36.60;;;;;;6192633;23;20028;-80
2021/03/08 17:47:26;;;;;;;1.55;0.68;;;20.90;36.60;;;;;;6217588;23;20446;-80
2021/03/08 17:49:51;;;;;;;1.63;0.80;;;20.80;36.90;;;;;;6192753;23;20012;-80
2021/03/08 17:52:17;;;;;;;1.70;0.80;;;20.80;36.80;;;;;;6192883;23;20016;-80
2021/03/08 17:54:43;;;;;;;3.97;0.85;;;20.80;36.60;;;;;;6245096;23;20031;-80
2021/03/08 17:57:09;;;;;;;1.33;0.65;;;20.80;36.80;;;;;;6192613;23;20019;-80
2021/03/08 17:59:34;;;;;;;2.80;0.68;;;20.80;36.80;;;;;;6190016;23;20021;-79
2021/03/08 18:02:00;;;;;;;1.42;1.00;;;20.80;36.90;;;;;;6217703;23;20018;-80
2021/03/08 18:04:26;;;;;;;0.95;0.68;;;20.70;36.80;;;;;;6217014;23;20422;-80
2021/03/08 18:06:52;;;;;;;1.20;0.75;;;20.70;37.00;;;;;;6193034;23;20039;-80
2021/03/08 18:09:18;;;;;;;1.23;0.75;;;20.70;36.70;;;;;;6217630;23;20100;-80
2021/03/08 18:11:43;;;;;;;1.23;0.60;;;20.70;36.90;;;;;;6192748;23;20016;-78
2021/03/08 18:14:09;;;;;;;0.77;0.70;;;20.70;36.90;;;;;;6192259;23;20312;-80
2021/03/08 18:16:35;;;;;;;4.03;0.95;;;20.70;36.90;;;;;;6215837;23;20013;-79
2021/03/08 18:19:00;;;;;;;5.43;0.70;;;20.80;36.60;;;;;;6218061;23;20021;-80
2021/03/08 18:21:26;;;;;;;2.33;0.82;;;20.80;36.30;;;;;;6191621;23;20316;-80
2021/03/08 18:23:52;;;;;;;1.42;0.80;;;20.80;36.30;;;;;;6218919;23;20050;-79
2021/03/08 18:26:18;;;;;;;1.23;0.70;;;20.90;36.40;;;;;;6193971;23;20024;-80
2021/03/08 18:28:44;;;;;;;2.33;0.80;;;20.80;36.50;;;;;;6216899;23;20016;-79
2021/03/08 18:31:09;;;;;;;1.45;0.77;;;20.80;36.20;;;;;;6191273;23;20019;-79
2021/03/08 18:33:35;;;;;;;1.98;0.65;;;20.80;35.90;;;;;;6218884;23;20078;-79
2021/03/08 18:36:01;;;;;;;1.27;0.77;;;20.80;36.20;;;;;;6194141;23;20377;-79
2021/03/08 18:38:26;;;;;;;3.28;0.98;;;20.80;36.00;;;;;;6245792;23;20019;-79
2021/03/08 18:40:52;;;;;;;1.33;0.88;;;20.80;35.80;;;;;;6246015;23;20074;-79
2021/03/08 18:43:18;;;;;;;1.80;0.93;;;20.80;35.90;;;;;;6219037;23;20484;-80
2021/03/08 18:45:44;;;;;;;2.75;0.70;;;20.80;35.80;;;;;;6191653;23;20031;-79
2021/03/08 18:48:10;;;;;;;1.58;1.00;;;20.80;35.90;;;;;;6216330;23;20040;-79
2021/03/08 18:50:37;;;;;;;2.85;0.70;;;20.80;36.00;;;;;;6193283;23;20031;-80
2021/03/08 18:53:06;;;;;;;1.88;0.90;;;20.80;35.80;;;;;;6219353;23;20008;-80
2021/03/08 18:55:32;;;;;;;1.15;0.88;;;20.70;35.60;;;;;;6219110;23;20043;-80
2021/03/08 18:57:57;;;;;;;2.08;0.70;;;20.70;35.70;;;;;;6193758;23;20016;-80
2021/03/08 19:00:24;;;;;;;1.02;0.63;;;20.80;36.10;;;;;;6218750;23;20385;-79
2021/03/08 19:02:50;;;;;;;1.77;1.00;;;20.80;36.00;;;;;;6192448;23;20075;-79
2021/03/08 19:05:15;;;;;;;1.83;0.82;;;20.80;35.90;;;;;;6218706;23;20020;-80
2021/03/08 19:07:41;;;;;;;1.30;0.82;;;20.80;36.00;;;;;;6219041;23;20012;-79
2021/03/08 19:10:07;;;;;;;1.42;0.63;;;20.80;36.00;;;;;;6218704;23;20062;-79
2021/03/08 19:12:33;;;;;;;1.42;0.77;;;20.80;35.90;;;;;;6193627;23;20020;-79
2021/03/08 19:15:02;;;;;;;1.63;0.70;;;20.70;35.90;;;;;;6194383;23;20295;-79
2021/03/08 19:17:28;;;;;;;1.98;0.70;;;20.80;35.90;;;;;;6193950;23;20050;-79
2021/03/08 19:19:54;;;;;;;0.82;0.60;;;20.70;35.70;;;;;;6193483;23;20028;-80
2021/03/08 19:22:19;;;;;;;1.55;0.60;;;20.70;35.60;;;;;;6218305;23;20016;-79
2021/03/08 19:24:45;;;;;;;1.13;0.63;;;20.70;36.00;;;;;;6218394;23;20385;-79
2021/03/08 19:27:11;;;;;;;0.82;0.60;;;20.80;36.00;;;;;;6245498;23;20012;-79
2021/03/08 19:29:36;;;;;;;1.58;0.82;;;20.80;35.80;;;;;;6218522;23;20016;-80
2021/03/08 19:32:03;;;;;;;1.20;0.75;;;20.80;36.00;;;;;;6218467;23;20016;-79
2021/03/08 19:34:31;;;;;;;1.48;0.70;;;20.70;35.80;;;;;;6218616;23;20090;-79
2021/03/08 19:36:59;;;;;;;1.33;0.65;;;20.70;36.00;;;;;;6218461;23;20369;-79
2021/03/08 19:39:26;;;;;;;1.38;0.70;;;20.70;36.00;;;;;;6193860;23;20091;-79
2021/03/08 19:41:52;;;;;;;0.88;0.60;;;20.70;35.80;;;;;;6218561;23;20047;-79
2021/03/08 19:44:18;;;;;;;0.88;0.50;;;20.70;36.00;;;;;;6218409;23;20016;-79
2021/03/08 19:46:44;;;;;;;1.00;0.60;;;20.70;35.90;;;;;;6193430;23;20027;-80
2021/03/08 19:49:10;;;;;;;1.45;0.75;;;20.70;35.70;;;;;;6193075;23;20399;-79
2021/03/08 19:51:36;;;;;;;1.20;0.70;;;20.70;35.80;;;;;;6218770;23;20020;-79
2021/03/08 19:54:03;;;;;;;1.42;1.00;;;20.60;35.80;;;;;;6218785;23;20016;-79
2021/03/08 19:56:29;;;;;;;1.95;1.02;;;20.60;36.40;;;;;;6193131;23;20112;-79
2021/03/08 19:58:57;;;;;;;1.52;0.73;;;20.60;35.70;;;;;;6193279;23;20012;-80
2021/03/08 20:01:22;;;;;;;1.23;0.68;;;20.60;36.00;;;;;;6193443;23;20027;-80
2021/03/08 20:03:48;;;;;;;1.85;0.90;;;20.60;35.70;;;;;;6218817;23;20012;-79
2021/03/08 20:06:14;;;;;;;1.70;0.70;;;20.60;35.90;;;;;;6193236;23;20100;-80
2021/03/08 20:08:39;;;;;;;0.85;0.80;;;20.60;35.90;;;;;;6193643;23;20437;-79
2021/03/08 20:11:08;;;;;;;1.27;0.70;;;20.60;35.80;;;;;;6193493;23;20445;-79
2021/03/08 20:13:43;;;;;;;0.90;0.75;;;20.60;35.80;;;;;;6193285;23;20022;-79
2021/03/08 20:16:16;;;;;;;1.38;0.70;;;20.60;35.90;;;;;;6194016;23;20377;-80
2021/03/08 20:18:42;;;;;;;1.15;0.70;;;20.60;35.80;;;;;;6193282;23;20073;-80
2021/03/08 20:21:09;;;;;;;1.13;0.68;;;20.60;35.80;;;;;;6245385;23;20024;-79
2021/03/08 20:23:35;;;;;;;0.63;0.60;;;20.60;35.90;;;;;;6190038;23;20008;-79
2021/03/08 20:26:01;;;;;;;1.15;0.70;;;20.60;35.80;;;;;;6193458;23;20349;-79
2021/03/08 20:28:27;;;;;;;1.20;0.65;;;20.60;35.80;;;;;;6192747;23;20094;-79
2021/03/08 20:30:54;;;;;;;1.33;0.65;;;20.60;36.00;;;;;;6193723;23;20019;-79
2021/03/08 20:33:20;;;;;;;1.05;0.63;;;20.60;35.80;;;;;;6218194;23;20450;-79
2021/03/08 20:35:46;;;;;;;1.52;0.80;;;20.50;36.10;;;;;;6217758;23;20388;-79
2021/03/08 20:38:11;;;;;;;2.15;1.00;;;20.60;35.70;;;;;;6218174;23;20011;-80
2021/03/08 20:40:37;;;;;;;0.57;0.52;;;20.50;35.90;;;;;;6218379;23;20023;-79
2021/03/08 20:43:03;;;;;;;1.05;0.90;;;20.50;35.80;;;;;;6193221;23;20098;-79
2021/03/08 20:45:29;;;;;;;1.85;0.60;;;20.60;35.90;;;;;;6193194;23;20066;-79
2021/03/08 20:47:54;;;;;;;1.40;0.60;;;20.60;35.90;;;;;;6218205;23;20011;-79
2021/03/08 20:50:21;;;;;;;1.02;0.60;;;20.60;35.70;;;;;;6218233;23;20012;-79
2021/03/08 20:52:47;;;;;;;0.85;0.60;;;20.60;35.90;;;;;;6193783;23;20019;-80
2021/03/08 20:55:13;;;;;;;0.77;0.60;;;20.60;35.80;;;;;;6193715;23;20070;-79
2021/03/08 20:57:39;;;;;;;0.60;0.60;;;20.60;35.70;;;;;;6192694;23;20016;-79
2021/03/08 21:00:08;;;;;;;0.77;0.70;;;20.60;35.90;;;;;;6218132;23;20035;-80
2021/03/08 21:02:34;;;;;;;0.98;0.60;;;20.60;35.90;;;;;;6190362;23;20065;-79
2021/03/08 21:05:00;;;;;;;1.17;0.60;;;20.50;35.80;;;;;;6193034;23;20016;-79
2021/03/08 21:07:26;;;;;;;1.00;0.70;;;20.60;35.80;;;;;;6192934;23;20043;-80
2021/03/08 21:09:52;;;;;;;1.00;0.73;;;20.60;35.70;;;;;;6218175;23;20473;-79
2021/03/08 21:12:18;;;;;;;0.52;0.50;;;20.50;35.70;;;;;;6193182;23;20016;-79
2021/03/08 21:14:43;;;;;;;0.80;0.70;;;20.50;35.70;;;;;;6246073;23;20444;-79